createdAt,value
2018-08-19T00:01:19.983Z,20.66
2018-08-19T00:03:49.783Z,20.50
2018-08-19T00:06:19.400Z,20.43
2018-08-19T00:08:49.557Z,20.49
2018-08-19T00:11:19.055Z,20.47
2018-08-19T00:13:48.783Z,20.40
2018-08-19T00:16:18.577Z,20.41
2018-08-19T00:36:24.065Z,20.25
2018-08-19T00:38:54.101Z,20.13
2018-08-19T00:41:23.652Z,20.12
2018-08-19T00:43:53.263Z,20.08
2018-08-19T00:46:27.520Z,20.17
2018-08-19T00:48:57.283Z,20.09
2018-08-19T00:51:26.793Z,19.92
2018-08-19T00:53:56.832Z,19.91
2018-08-19T00:56:26.415Z,19.93
2018-08-19T00:58:56.145Z,19.91
2018-08-19T01:01:36.228Z,19.86
2018-08-19T01:04:08.750Z,19.92
2018-08-19T01:06:43.780Z,19.93
2018-08-19T01:09:13.189Z,19.87
2018-08-19T01:29:04.034Z,19.65
2018-08-19T01:31:33.734Z,19.65
2018-08-19T01:34:06.670Z,19.53
2018-08-19T01:36:36.341Z,19.42
2018-08-19T01:56:27.530Z,19.40
2018-08-19T01:58:57.670Z,19.33
2018-08-19T02:01:37.254Z,19.31
2018-08-19T02:04:06.685Z,19.31
2018-08-19T02:06:36.268Z,19.23
2018-08-19T02:09:08.127Z,19.17
2018-08-19T02:11:37.661Z,19.19
2018-08-19T02:14:07.582Z,19.06
2018-08-19T02:16:37.157Z,19.07
2018-08-19T02:19:06.767Z,19.03
2018-08-19T02:21:36.120Z,19.07
2018-08-19T02:24:05.895Z,19.05
2018-08-19T02:26:35.573Z,18.97
2018-08-19T02:29:19.078Z,18.92
2018-08-19T02:49:10.683Z,18.68
2018-08-19T03:09:02.603Z,18.70
2018-08-19T03:11:32.182Z,18.69
2018-08-19T03:14:01.638Z,18.75
2018-08-19T03:16:31.521Z,18.75
2018-08-19T03:19:01.108Z,18.70
2018-08-19T03:21:30.820Z,18.59
2018-08-19T03:24:00.255Z,18.57
2018-08-19T03:26:30.979Z,18.59
2018-08-19T03:29:05.984Z,18.58
2018-08-19T03:31:35.733Z,18.45
2018-08-19T03:34:05.174Z,18.36
2018-08-19T03:36:34.817Z,18.37
2018-08-19T03:39:16.496Z,18.39
2018-08-19T03:41:46.676Z,18.36
2018-08-19T03:44:16.707Z,18.27
2018-08-19T03:46:46.374Z,18.36
2018-08-19T03:49:16.151Z,18.27
2018-08-19T04:09:07.687Z,18.11
2018-08-19T04:11:43.808Z,18.21
2018-08-19T04:14:26.927Z,18.20
2018-08-19T04:34:19.030Z,18.28
2018-08-19T04:36:48.585Z,18.22
2018-08-19T04:39:18.831Z,18.36
2018-08-19T04:41:48.771Z,18.40
2018-08-19T04:44:18.531Z,18.44
2018-08-19T04:46:48.042Z,18.46
2018-08-19T04:49:17.791Z,18.48
2018-08-19T04:51:47.423Z,18.54
2018-08-19T05:11:39.117Z,18.94
2018-08-19T05:14:08.899Z,18.94
2018-08-19T05:16:38.300Z,19.03
2018-08-19T05:19:08.034Z,19.08
2018-08-19T05:21:37.915Z,19.11
2018-08-19T05:41:29.584Z,19.55
2018-08-19T05:43:59.397Z,19.54
2018-08-19T05:46:28.819Z,19.66
2018-08-19T05:49:05.633Z,19.66
2018-08-19T05:51:35.125Z,19.67
2018-08-19T05:54:04.739Z,19.69
2018-08-19T05:56:34.840Z,19.86
2018-08-19T06:16:27.292Z,20.32
2018-08-19T06:36:18.653Z,21.10
2018-08-19T06:38:48.339Z,21.07
2018-08-19T06:41:18.024Z,21.14
2018-08-19T06:43:47.698Z,21.23
2018-08-19T06:46:17.358Z,21.09
2018-08-19T06:48:47.094Z,21.11
2018-08-19T06:51:16.657Z,21.24
2018-08-19T06:53:46.298Z,21.46
2018-08-19T06:56:15.907Z,21.54
2018-08-19T06:58:45.946Z,21.64
2018-08-19T07:01:15.423Z,21.67
2018-08-19T07:03:49.229Z,21.79
2018-08-19T07:06:18.958Z,21.87
2018-08-19T07:08:48.567Z,22.05
2018-08-19T07:11:18.084Z,22.03
2018-08-19T07:13:49.045Z,22.08
2018-08-19T07:16:19.585Z,22.03
2018-08-19T07:36:10.948Z,22.71
2018-08-19T07:38:40.658Z,22.77
2018-08-19T07:41:10.550Z,22.62
2018-08-19T08:01:02.245Z,23.31
2018-08-19T08:03:31.829Z,23.43
2018-08-19T08:06:01.290Z,23.58
2018-08-19T08:08:31.837Z,23.72
2018-08-19T08:11:01.506Z,23.92
2018-08-19T08:13:30.774Z,24.08
2018-08-19T08:16:00.344Z,24.24
2018-08-19T08:18:30.023Z,24.15
2018-08-19T08:21:04.535Z,24.19
2018-08-19T08:23:34.240Z,24.23
2018-08-19T08:43:25.949Z,24.86
2018-08-19T08:45:57.035Z,24.95
2018-08-19T08:48:27.093Z,24.90
2018-08-19T08:50:57.017Z,25.09
2018-08-19T09:10:49.944Z,25.73
2018-08-19T09:13:19.594Z,26.08
2018-08-19T09:15:49.193Z,25.98
2018-08-19T09:18:18.960Z,26.02
2018-08-19T09:20:48.623Z,26.20
2018-08-19T09:23:18.379Z,26.26
2018-08-19T09:25:47.999Z,26.35
2018-08-19T09:28:17.638Z,26.41
2018-08-19T09:30:47.122Z,26.48
2018-08-19T09:33:16.566Z,26.44
2018-08-19T09:35:46.158Z,26.67
2018-08-19T09:55:48.356Z,27.81
2018-08-19T10:15:39.258Z,28.26
2018-08-19T10:18:09.944Z,28.51
2018-08-19T10:20:39.795Z,28.42
2018-08-19T10:23:09.620Z,28.40
2018-08-19T10:25:39.411Z,28.73
2018-08-19T10:28:08.835Z,28.83
2018-08-19T10:30:45.364Z,28.81
2018-08-19T10:50:36.647Z,29.70
2018-08-19T10:53:13.513Z,29.83
2018-08-19T10:55:43.033Z,29.89
2018-08-19T11:30:06.725Z,31.08
2018-08-19T11:32:37.497Z,30.88
2018-08-19T11:35:07.054Z,30.44
2018-08-19T11:37:36.879Z,29.99
2018-08-19T11:40:06.470Z,29.21
2018-08-19T11:42:35.894Z,28.88
2018-08-19T11:45:05.296Z,28.69
2018-08-19T11:47:34.910Z,28.44
2018-08-19T11:50:04.645Z,28.72
2018-08-19T11:52:34.455Z,29.34
2018-08-19T11:55:04.199Z,29.87
2018-08-19T11:57:33.755Z,30.24
2018-08-19T12:00:03.327Z,30.25
2018-08-19T12:02:33.109Z,29.89
2018-08-19T12:05:02.699Z,29.26
2018-08-19T12:07:32.374Z,28.82
2018-08-19T12:10:02.191Z,28.67
2018-08-19T12:30:01.622Z,28.40
2018-08-19T12:32:31.197Z,28.63
2018-08-19T12:35:01.571Z,28.74
2018-08-19T12:37:32.745Z,28.92
2018-08-19T12:40:02.326Z,28.98
2018-08-19T12:42:33.685Z,29.35
2018-08-19T12:45:08.540Z,30.07
2018-08-19T12:47:38.321Z,30.22
2018-08-19T12:50:12.163Z,29.48
2018-08-19T12:52:41.723Z,28.95
2018-08-19T12:55:13.221Z,28.51
2018-08-19T12:57:44.035Z,27.49
2018-08-19T13:00:19.373Z,26.52
2018-08-19T13:02:50.515Z,26.17
2018-08-19T13:22:48.851Z,25.48
2018-08-19T13:25:19.031Z,25.23
2018-08-19T13:27:48.620Z,25.43
2018-08-19T13:30:19.539Z,25.55
2018-08-19T13:32:49.785Z,25.62
2018-08-19T13:52:42.408Z,26.29
2018-08-19T13:55:13.398Z,26.19
2018-08-19T13:57:43.122Z,26.22
2018-08-19T14:00:16.911Z,26.40
2018-08-19T14:20:09.957Z,29.16
2018-08-19T14:40:01.911Z,29.66
2018-08-19T14:42:31.520Z,30.13
2018-08-19T14:45:00.966Z,30.56
2018-08-19T14:47:30.414Z,30.51
2018-08-19T14:50:00.183Z,29.44
2018-08-19T14:52:29.964Z,29.28
2018-08-19T14:54:59.993Z,29.09
2018-08-19T14:57:29.532Z,28.96
2018-08-19T14:59:59.114Z,28.98
2018-08-19T15:02:29.202Z,29.30
2018-08-19T15:04:58.654Z,29.82
2018-08-19T15:07:28.068Z,30.25
2018-08-19T15:09:57.516Z,30.46
2018-08-19T15:32:44.016Z,29.09
2018-08-19T15:35:13.328Z,29.39
2018-08-19T15:37:42.857Z,29.67
2018-08-19T15:40:13.046Z,30.14
2018-08-19T15:42:42.556Z,30.30
2018-08-19T15:45:12.355Z,30.11
2018-08-19T15:47:42.030Z,29.69
2018-08-19T15:50:20.166Z,29.29
2018-08-19T15:52:50.480Z,29.19
2018-08-19T15:55:20.217Z,29.27
2018-08-19T15:57:49.827Z,28.96
2018-08-19T16:17:42.150Z,28.68
2018-08-19T16:20:11.958Z,28.45
2018-08-19T16:22:41.588Z,28.32
2018-08-19T16:25:11.550Z,28.26
2018-08-19T16:27:40.915Z,28.12
2018-08-19T16:30:10.545Z,27.76
2018-08-19T16:32:40.210Z,27.56
2018-08-19T16:52:32.205Z,26.86
2018-08-19T17:12:24.447Z,26.65
2018-08-19T17:14:54.111Z,26.61
2018-08-19T17:17:23.797Z,26.55
2018-08-19T17:19:53.572Z,26.48
2018-08-19T17:22:23.456Z,26.42
2018-08-19T17:24:53.270Z,26.28
2018-08-19T17:27:23.278Z,26.10
2018-08-19T17:29:52.760Z,26.21
2018-08-19T17:32:22.298Z,26.14
2018-08-19T17:34:51.910Z,25.96
2018-08-19T17:37:21.348Z,25.93
2018-08-19T17:57:12.602Z,25.56
2018-08-19T17:59:42.158Z,25.64
2018-08-19T18:02:11.626Z,25.59
2018-08-19T18:04:47.739Z,25.58
2018-08-19T18:07:22.874Z,25.45
2018-08-19T18:09:56.966Z,25.38
2018-08-19T18:12:27.059Z,25.28
2018-08-19T18:14:56.869Z,25.15
2018-08-19T18:34:47.366Z,24.94
2018-08-19T18:37:16.899Z,24.96
2018-08-19T18:57:09.253Z,24.62
2018-08-19T18:59:43.724Z,24.43
2018-08-19T19:34:12.320Z,23.40
2018-08-19T19:36:42.142Z,23.31
2018-08-19T19:39:12.194Z,23.32
2018-08-19T19:41:41.723Z,23.30
2018-08-19T19:44:23.960Z,23.35
2018-08-19T19:46:54.126Z,23.24
2018-08-19T19:49:24.084Z,23.19
2018-08-19T19:51:58.675Z,23.08
2018-08-19T19:54:29.733Z,22.90
2018-08-19T19:57:00.031Z,22.87
2018-08-19T19:59:31.818Z,22.86
2018-08-19T20:02:01.361Z,22.84
2018-08-19T20:04:31.152Z,22.82
2018-08-19T20:07:00.853Z,22.83
2018-08-19T20:09:31.322Z,22.87
2018-08-19T20:29:22.825Z,22.68
2018-08-19T20:31:52.647Z,22.62
2018-08-19T20:34:22.564Z,22.56
2018-08-19T20:36:52.076Z,22.53
2018-08-19T20:39:21.800Z,22.53
2018-08-19T20:41:51.470Z,22.55
2018-08-19T20:44:21.008Z,22.49
2018-08-19T20:46:54.883Z,22.61
2018-08-19T20:49:24.913Z,22.62
2018-08-19T20:51:55.289Z,22.65
2018-08-19T20:54:24.924Z,22.69
2018-08-19T20:56:54.434Z,22.66
2018-08-19T20:59:29.576Z,22.58
2018-08-19T21:01:59.316Z,22.56
2018-08-19T21:04:29.094Z,22.58
2018-08-19T21:06:59.045Z,22.54
2018-08-19T21:09:28.526Z,22.49
2018-08-19T21:11:57.936Z,22.40
2018-08-19T21:14:27.569Z,22.22
2018-08-19T21:16:57.257Z,22.32
2018-08-19T21:19:26.762Z,22.29
2018-08-19T21:21:56.646Z,22.24
2018-08-19T21:24:26.443Z,22.32
2018-08-19T21:27:00.535Z,21.92
2018-08-19T21:29:30.534Z,22.03
2018-08-19T21:32:00.142Z,22.12
2018-08-19T21:34:30.496Z,22.12
2018-08-19T21:37:00.762Z,22.06
2018-08-19T21:39:30.303Z,22.06
2018-08-19T21:41:59.833Z,21.95
2018-08-19T21:44:29.335Z,21.68
2018-08-19T21:46:58.913Z,21.60
2018-08-19T21:49:28.948Z,21.63
2018-08-19T21:51:58.439Z,21.53
2018-08-19T21:54:28.157Z,21.42
2018-08-19T21:56:57.633Z,21.52
2018-08-19T21:59:27.408Z,21.56
2018-08-19T22:01:58.297Z,21.59
2018-08-19T22:04:28.181Z,21.55
2018-08-19T22:06:57.885Z,21.52
2018-08-19T22:09:34.177Z,21.54
2018-08-19T22:12:04.251Z,21.42
2018-08-19T22:14:34.442Z,21.35
2018-08-19T22:17:11.414Z,21.29
2018-08-19T22:19:41.385Z,21.25
2018-08-19T22:22:11.162Z,21.13
2018-08-19T22:24:41.433Z,21.12
2018-08-19T22:27:17.218Z,21.08
2018-08-19T22:29:47.187Z,20.99
2018-08-19T22:32:16.627Z,20.91
2018-08-19T22:34:46.149Z,20.86
2018-08-19T22:37:15.714Z,20.90
2018-08-19T22:39:45.765Z,20.82
2018-08-19T22:42:15.139Z,20.63
2018-08-19T22:44:45.134Z,20.63
2018-08-19T22:47:14.754Z,20.68
2018-08-19T22:49:44.301Z,20.74
2018-08-19T22:52:20.809Z,20.77
2018-08-19T22:54:53.275Z,20.70
2018-08-19T22:57:22.997Z,20.50
2018-08-19T22:59:52.688Z,20.38
2018-08-19T23:02:22.906Z,20.18
2018-08-19T23:04:52.806Z,20.22
2018-08-19T23:07:22.606Z,20.29
2018-08-19T23:09:52.422Z,20.29
2018-08-19T23:12:22.286Z,20.39
2018-08-19T23:15:02.948Z,20.37
2018-08-19T23:20:12.071Z,20.38
2018-08-19T23:22:41.802Z,20.46
2018-08-19T23:25:11.237Z,20.39
2018-08-19T23:27:40.732Z,20.34
2018-08-19T23:30:10.108Z,20.41
2018-08-19T23:32:39.878Z,20.40
2018-08-19T23:35:09.540Z,20.34
2018-08-19T23:37:38.907Z,20.38
2018-08-19T23:40:08.340Z,20.35
2018-08-19T23:42:37.968Z,20.27
2018-08-19T23:45:07.950Z,20.19
2018-08-19T23:47:37.570Z,20.16
2018-08-19T23:50:07.056Z,20.16
2018-08-19T23:52:36.361Z,20.09
2018-08-19T23:55:06.181Z,19.98
2018-08-19T23:57:35.653Z,19.97
